sensor_id;sensor_type;location;lat;lon;timestamp;P1;durP1;ratioP1;P2;durP2;ratioP2
16385;SDS011;8302;51.154;4.456;2023-04-09T00:00:28;2.40;;;1.38;;
16385;SDS011;8302;51.154;4.456;2023-04-09T00:02:56;2.25;;;1.38;;
16385;SDS011;8302;51.154;4.456;2023-04-09T00:05:24;1.65;;;1.55;;
16385;SDS011;8302;51.154;4.456;2023-04-09T00:07:51;3.85;;;1.58;;
16385;SDS011;8302;51.154;4.456;2023-04-09T00:10:19;1.88;;;1.40;;
16385;SDS011;8302;51.154;4.456;2023-04-09T00:12:48;1.85;;;1.27;;
16385;SDS011;8302;51.154;4.456;2023-04-09T00:15:15;1.75;;;1.40;;
16385;SDS011;8302;51.154;4.456;2023-04-09T00:17:56;2.28;;;1.85;;
16385;SDS011;8302;51.154;4.456;2023-04-09T00:20:24;2.33;;;1.65;;
16385;SDS011;8302;51.154;4.456;2023-04-09T00:22:51;2.33;;;1.60;;
16385;SDS011;8302;51.154;4.456;2023-04-09T00:25:19;2.75;;;1.73;;
16385;SDS011;8302;51.154;4.456;2023-04-09T00:27:48;5.85;;;1.55;;
16385;SDS011;8302;51.154;4.456;2023-04-09T00:30:16;2.65;;;1.70;;
16385;SDS011;8302;51.154;4.456;2023-04-09T00:32:43;2.17;;;1.92;;
16385;SDS011;8302;51.154;4.456;2023-04-09T00:35:11;2.13;;;1.63;;
16385;SDS011;8302;51.154;4.456;2023-04-09T00:37:39;3.00;;;1.77;;
16385;SDS011;8302;51.154;4.456;2023-04-09T00:40:07;2.22;;;2.03;;
16385;SDS011;8302;51.154;4.456;2023-04-09T00:42:35;3.10;;;2.17;;
16385;SDS011;8302;51.154;4.456;2023-04-09T00:45:05;2.25;;;1.85;;
16385;SDS011;8302;51.154;4.456;2023-04-09T00:47:33;3.03;;;1.88;;
16385;SDS011;8302;51.154;4.456;2023-04-09T00:50:02;2.63;;;1.63;;
16385;SDS011;8302;51.154;4.456;2023-04-09T00:52:30;0.98;;;0.70;;
16385;SDS011;8302;51.154;4.456;2023-04-09T00:54:58;2.45;;;1.63;;
16385;SDS011;8302;51.154;4.456;2023-04-09T00:57:25;3.13;;;2.30;;
16385;SDS011;8302;51.154;4.456;2023-04-09T00:59:54;4.40;;;2.10;;
16385;SDS011;8302;51.154;4.456;2023-04-09T01:02:23;3.13;;;1.55;;
16385;SDS011;8302;51.154;4.456;2023-04-09T01:04:51;1.80;;;1.70;;
16385;SDS011;8302;51.154;4.456;2023-04-09T01:07:19;2.70;;;1.75;;
16385;SDS011;8302;51.154;4.456;2023-04-09T01:09:53;3.17;;;1.70;;
16385;SDS011;8302;51.154;4.456;2023-04-09T01:12:28;2.42;;;1.90;;
16385;SDS011;8302;51.154;4.456;2023-04-09T01:14:58;3.38;;;1.65;;
16385;SDS011;8302;51.154;4.456;2023-04-09T01:17:32;1.83;;;1.52;;
16385;SDS011;8302;51.154;4.456;2023-04-09T01:20:02;3.53;;;1.90;;
16385;SDS011;8302;51.154;4.456;2023-04-09T01:22:31;4.60;;;2.20;;
16385;SDS011;8302;51.154;4.456;2023-04-09T01:25:08;2.58;;;2.22;;
16385;SDS011;8302;51.154;4.456;2023-04-09T01:27:44;3.85;;;2.15;;
16385;SDS011;8302;51.154;4.456;2023-04-09T01:30:14;4.53;;;2.03;;
16385;SDS011;8302;51.154;4.456;2023-04-09T01:32:43;3.45;;;2.15;;
16385;SDS011;8302;51.154;4.456;2023-04-09T01:35:11;1.63;;;1.52;;
16385;SDS011;8302;51.154;4.456;2023-04-09T01:37:39;3.30;;;1.60;;
16385;SDS011;8302;51.154;4.456;2023-04-09T01:40:07;3.05;;;1.60;;
16385;SDS011;8302;51.154;4.456;2023-04-09T01:42:35;1.45;;;1.25;;
16385;SDS011;8302;51.154;4.456;2023-04-09T01:45:03;4.88;;;1.23;;
16385;SDS011;8302;51.154;4.456;2023-04-09T01:47:33;2.80;;;2.13;;
16385;SDS011;8302;51.154;4.456;2023-04-09T01:50:01;2.10;;;1.63;;
16385;SDS011;8302;51.154;4.456;2023-04-09T01:52:29;2.28;;;1.67;;
16385;SDS011;8302;51.154;4.456;2023-04-09T01:54:57;3.83;;;2.03;;
16385;SDS011;8302;51.154;4.456;2023-04-09T01:57:24;3.17;;;2.10;;
16385;SDS011;8302;51.154;4.456;2023-04-09T01:59:52;3.90;;;2.17;;
16385;SDS011;8302;51.154;4.456;2023-04-09T02:02:23;3.70;;;1.98;;
16385;SDS011;8302;51.154;4.456;2023-04-09T02:04:56;3.05;;;1.63;;
16385;SDS011;8302;51.154;4.456;2023-04-09T02:07:26;3.63;;;2.25;;
16385;SDS011;8302;51.154;4.456;2023-04-09T02:09:55;2.40;;;1.80;;
16385;SDS011;8302;51.154;4.456;2023-04-09T02:12:24;3.67;;;1.92;;
16385;SDS011;8302;51.154;4.456;2023-04-09T02:14:52;2.25;;;2.05;;
16385;SDS011;8302;51.154;4.456;2023-04-09T02:17:20;2.35;;;1.73;;
16385;SDS011;8302;51.154;4.456;2023-04-09T02:19:47;5.28;;;2.50;;
16385;SDS011;8302;51.154;4.456;2023-04-09T02:22:16;3.97;;;2.28;;
16385;SDS011;8302;51.154;4.456;2023-04-09T02:24:45;2.90;;;1.75;;
16385;SDS011;8302;51.154;4.456;2023-04-09T02:27:13;2.63;;;1.88;;
16385;SDS011;8302;51.154;4.456;2023-04-09T02:29:40;9.23;;;2.35;;
16385;SDS011;8302;51.154;4.456;2023-04-09T02:32:08;3.28;;;2.33;;
16385;SDS011;8302;51.154;4.456;2023-04-09T02:34:36;1.95;;;1.65;;
16385;SDS011;8302;51.154;4.456;2023-04-09T02:37:03;4.70;;;2.10;;
16385;SDS011;8302;51.154;4.456;2023-04-09T02:39:32;2.92;;;1.80;;
16385;SDS011;8302;51.154;4.456;2023-04-09T02:42:00;3.45;;;1.83;;
16385;SDS011;8302;51.154;4.456;2023-04-09T02:44:28;2.67;;;2.47;;
16385;SDS011;8302;51.154;4.456;2023-04-09T02:46:56;4.30;;;1.95;;
16385;SDS011;8302;51.154;4.456;2023-04-09T02:49:23;2.88;;;1.85;;
16385;SDS011;8302;51.154;4.456;2023-04-09T02:51:51;4.38;;;2.65;;
16385;SDS011;8302;51.154;4.456;2023-04-09T02:54:19;2.80;;;1.90;;
16385;SDS011;8302;51.154;4.456;2023-04-09T02:56:48;4.35;;;2.80;;
16385;SDS011;8302;51.154;4.456;2023-04-09T02:59:16;2.60;;;2.13;;
16385;SDS011;8302;51.154;4.456;2023-04-09T03:01:43;4.22;;;2.47;;
16385;SDS011;8302;51.154;4.456;2023-04-09T03:04:11;3.25;;;2.10;;
16385;SDS011;8302;51.154;4.456;2023-04-09T03:06:39;3.97;;;2.28;;
16385;SDS011;8302;51.154;4.456;2023-04-09T03:09:06;3.67;;;2.53;;
16385;SDS011;8302;51.154;4.456;2023-04-09T03:11:34;2.40;;;1.83;;
16385;SDS011;8302;51.154;4.456;2023-04-09T03:14:03;4.97;;;2.33;;
16385;SDS011;8302;51.154;4.456;2023-04-09T03:16:31;2.42;;;2.05;;
16385;SDS011;8302;51.154;4.456;2023-04-09T03:18:58;6.22;;;2.97;;
16385;SDS011;8302;51.154;4.456;2023-04-09T03:21:26;2.40;;;1.88;;
16385;SDS011;8302;51.154;4.456;2023-04-09T03:23:53;3.95;;;2.55;;
16385;SDS011;8302;51.154;4.456;2023-04-09T03:26:21;2.58;;;1.33;;
16385;SDS011;8302;51.154;4.456;2023-04-09T03:28:49;10.10;;;2.35;;
16385;SDS011;8302;51.154;4.456;2023-04-09T03:31:18;7.13;;;3.13;;
16385;SDS011;8302;51.154;4.456;2023-04-09T03:33:46;3.88;;;2.35;;
16385;SDS011;8302;51.154;4.456;2023-04-09T03:36:14;3.25;;;2.08;;
16385;SDS011;8302;51.154;4.456;2023-04-09T03:38:57;5.00;;;1.98;;
16385;SDS011;8302;51.154;4.456;2023-04-09T03:41:37;4.10;;;2.22;;
16385;SDS011;8302;51.154;4.456;2023-04-09T03:44:09;4.40;;;3.15;;
16385;SDS011;8302;51.154;4.456;2023-04-09T03:46:57;4.10;;;2.55;;
16385;SDS011;8302;51.154;4.456;2023-04-09T03:49:26;5.07;;;2.28;;
16385;SDS011;8302;51.154;4.456;2023-04-09T03:51:59;4.13;;;2.45;;
16385;SDS011;8302;51.154;4.456;2023-04-09T03:54:35;4.57;;;3.03;;
16385;SDS011;8302;51.154;4.456;2023-04-09T03:57:07;5.93;;;3.13;;
16385;SDS011;8302;51.154;4.456;2023-04-09T03:59:38;3.08;;;2.42;;
16385;SDS011;8302;51.154;4.456;2023-04-09T04:02:07;4.35;;;2.47;;
16385;SDS011;8302;51.154;4.456;2023-04-09T04:04:39;2.92;;;2.35;;
16385;SDS011;8302;51.154;4.456;2023-04-09T04:07:09;7.30;;;3.30;;
16385;SDS011;8302;51.154;4.456;2023-04-09T04:09:46;3.65;;;2.22;;
16385;SDS011;8302;51.154;4.456;2023-04-09T04:12:16;3.92;;;2.78;;
16385;SDS011;8302;51.154;4.456;2023-04-09T04:14:56;5.07;;;3.50;;
16385;SDS011;8302;51.154;4.456;2023-04-09T04:17:32;5.35;;;2.85;;
16385;SDS011;8302;51.154;4.456;2023-04-09T04:20:03;4.97;;;2.47;;
16385;SDS011;8302;51.154;4.456;2023-04-09T04:22:36;3.95;;;2.40;;
16385;SDS011;8302;51.154;4.456;2023-04-09T04:25:04;3.38;;;2.67;;
16385;SDS011;8302;51.154;4.456;2023-04-09T04:27:32;3.72;;;2.60;;
16385;SDS011;8302;51.154;4.456;2023-04-09T04:30:00;3.83;;;2.83;;
16385;SDS011;8302;51.154;4.456;2023-04-09T04:32:41;5.95;;;2.95;;
16385;SDS011;8302;51.154;4.456;2023-04-09T04:35:10;3.72;;;3.03;;
16385;SDS011;8302;51.154;4.456;2023-04-09T04:37:39;3.30;;;2.50;;
16385;SDS011;8302;51.154;4.456;2023-04-09T04:40:07;6.38;;;3.15;;
16385;SDS011;8302;51.154;4.456;2023-04-09T04:42:39;4.50;;;2.08;;
16385;SDS011;8302;51.154;4.456;2023-04-09T04:45:11;3.70;;;2.22;;
16385;SDS011;8302;51.154;4.456;2023-04-09T04:47:50;3.35;;;1.85;;
16385;SDS011;8302;51.154;4.456;2023-04-09T04:50:18;1.73;;;1.63;;
16385;SDS011;8302;51.154;4.456;2023-04-09T04:52:54;3.53;;;2.05;;
16385;SDS011;8302;51.154;4.456;2023-04-09T04:55:26;6.55;;;3.30;;
16385;SDS011;8302;51.154;4.456;2023-04-09T04:57:54;7.90;;;3.00;;
16385;SDS011;8302;51.154;4.456;2023-04-09T05:00:26;1.80;;;1.50;;
16385;SDS011;8302;51.154;4.456;2023-04-09T05:03:00;6.47;;;2.88;;
16385;SDS011;8302;51.154;4.456;2023-04-09T05:05:41;3.53;;;2.08;;
16385;SDS011;8302;51.154;4.456;2023-04-09T05:08:08;4.82;;;2.42;;
16385;SDS011;8302;51.154;4.456;2023-04-09T05:10:39;3.70;;;2.40;;
16385;SDS011;8302;51.154;4.456;2023-04-09T05:13:06;4.70;;;2.60;;
16385;SDS011;8302;51.154;4.456;2023-04-09T05:15:38;8.13;;;3.28;;
16385;SDS011;8302;51.154;4.456;2023-04-09T05:18:08;9.70;;;3.28;;
16385;SDS011;8302;51.154;4.456;2023-04-09T05:20:36;6.18;;;2.88;;
16385;SDS011;8302;51.154;4.456;2023-04-09T05:23:06;3.90;;;3.53;;
16385;SDS011;8302;51.154;4.456;2023-04-09T05:25:39;6.97;;;2.90;;
16385;SDS011;8302;51.154;4.456;2023-04-09T05:28:14;7.63;;;3.53;;
16385;SDS011;8302;51.154;4.456;2023-04-09T05:30:47;6.07;;;3.67;;
16385;SDS011;8302;51.154;4.456;2023-04-09T05:33:18;7.85;;;3.17;;
16385;SDS011;8302;51.154;4.456;2023-04-09T05:35:46;2.35;;;1.52;;
16385;SDS011;8302;51.154;4.456;2023-04-09T05:38:14;5.15;;;2.95;;
16385;SDS011;8302;51.154;4.456;2023-04-09T05:40:43;5.28;;;3.35;;
16385;SDS011;8302;51.154;4.456;2023-04-09T05:43:12;5.28;;;2.88;;
16385;SDS011;8302;51.154;4.456;2023-04-09T05:45:42;6.22;;;2.88;;
16385;SDS011;8302;51.154;4.456;2023-04-09T05:48:09;5.97;;;2.80;;
16385;SDS011;8302;51.154;4.456;2023-04-09T05:50:39;5.75;;;3.83;;
16385;SDS011;8302;51.154;4.456;2023-04-09T05:53:22;5.40;;;3.38;;
16385;SDS011;8302;51.154;4.456;2023-04-09T05:55:50;6.55;;;2.85;;
16385;SDS011;8302;51.154;4.456;2023-04-09T05:58:23;2.22;;;2.03;;
16385;SDS011;8302;51.154;4.456;2023-04-09T06:00:51;6.55;;;3.53;;
16385;SDS011;8302;51.154;4.456;2023-04-09T06:03:19;5.93;;;3.08;;
16385;SDS011;8302;51.154;4.456;2023-04-09T06:05:48;3.45;;;2.75;;
16385;SDS011;8302;51.154;4.456;2023-04-09T06:08:16;5.75;;;3.25;;
16385;SDS011;8302;51.154;4.456;2023-04-09T06:10:43;5.05;;;2.85;;
16385;SDS011;8302;51.154;4.456;2023-04-09T06:13:11;5.22;;;3.38;;
16385;SDS011;8302;51.154;4.456;2023-04-09T06:15:40;4.25;;;2.38;;
16385;SDS011;8302;51.154;4.456;2023-04-09T06:18:07;5.70;;;3.60;;
16385;SDS011;8302;51.154;4.456;2023-04-09T06:20:35;7.50;;;2.80;;
16385;SDS011;8302;51.154;4.456;2023-04-09T06:23:04;8.05;;;3.83;;
16385;SDS011;8302;51.154;4.456;2023-04-09T06:25:32;10.35;;;4.32;;
16385;SDS011;8302;51.154;4.456;2023-04-09T06:27:59;7.35;;;3.75;;
16385;SDS011;8302;51.154;4.456;2023-04-09T06:30:28;5.35;;;3.38;;
16385;SDS011;8302;51.154;4.456;2023-04-09T06:32:57;8.73;;;4.03;;
16385;SDS011;8302;51.154;4.456;2023-04-09T06:35:24;6.18;;;3.80;;
16385;SDS011;8302;51.154;4.456;2023-04-09T06:37:52;4.32;;;3.45;;
16385;SDS011;8302;51.154;4.456;2023-04-09T06:40:21;6.78;;;4.57;;
16385;SDS011;8302;51.154;4.456;2023-04-09T06:42:48;7.63;;;4.97;;
16385;SDS011;8302;51.154;4.456;2023-04-09T06:45:22;5.30;;;3.78;;
16385;SDS011;8302;51.154;4.456;2023-04-09T06:47:50;8.48;;;4.25;;
16385;SDS011;8302;51.154;4.456;2023-04-09T06:50:17;8.35;;;3.45;;
16385;SDS011;8302;51.154;4.456;2023-04-09T06:52:45;5.85;;;3.78;;
16385;SDS011;8302;51.154;4.456;2023-04-09T06:55:12;7.47;;;3.85;;
16385;SDS011;8302;51.154;4.456;2023-04-09T06:57:42;6.03;;;2.97;;
16385;SDS011;8302;51.154;4.456;2023-04-09T07:00:10;8.50;;;4.70;;
16385;SDS011;8302;51.154;4.456;2023-04-09T07:02:37;9.05;;;4.95;;
16385;SDS011;8302;51.154;4.456;2023-04-09T07:05:06;7.30;;;3.78;;
16385;SDS011;8302;51.154;4.456;2023-04-09T07:07:34;7.00;;;3.83;;
16385;SDS011;8302;51.154;4.456;2023-04-09T07:10:01;8.88;;;4.25;;
16385;SDS011;8302;51.154;4.456;2023-04-09T07:12:30;9.15;;;4.07;;
16385;SDS011;8302;51.154;4.456;2023-04-09T07:14:59;6.85;;;4.07;;
16385;SDS011;8302;51.154;4.456;2023-04-09T07:17:27;7.57;;;4.45;;
16385;SDS011;8302;51.154;4.456;2023-04-09T07:19:55;7.47;;;4.80;;
16385;SDS011;8302;51.154;4.456;2023-04-09T07:22:22;7.70;;;4.03;;
16385;SDS011;8302;51.154;4.456;2023-04-09T07:24:50;6.75;;;4.00;;
16385;SDS011;8302;51.154;4.456;2023-04-09T07:27:20;5.88;;;3.67;;
16385;SDS011;8302;51.154;4.456;2023-04-09T07:29:48;9.02;;;5.05;;
16385;SDS011;8302;51.154;4.456;2023-04-09T07:32:17;6.43;;;3.47;;
16385;SDS011;8302;51.154;4.456;2023-04-09T07:34:45;4.32;;;3.25;;
16385;SDS011;8302;51.154;4.456;2023-04-09T07:37:12;7.95;;;4.40;;
16385;SDS011;8302;51.154;4.456;2023-04-09T07:39:40;6.20;;;3.72;;
16385;SDS011;8302;51.154;4.456;2023-04-09T07:42:08;7.93;;;4.22;;
16385;SDS011;8302;51.154;4.456;2023-04-09T07:44:36;8.32;;;4.63;;
16385;SDS011;8302;51.154;4.456;2023-04-09T07:47:05;10.90;;;4.15;;
16385;SDS011;8302;51.154;4.456;2023-04-09T07:49:35;7.28;;;4.28;;
16385;SDS011;8302;51.154;4.456;2023-04-09T07:52:03;9.35;;;5.55;;
16385;SDS011;8302;51.154;4.456;2023-04-09T07:54:31;12.00;;;6.05;;
16385;SDS011;8302;51.154;4.456;2023-04-09T07:56:59;9.05;;;4.00;;
16385;SDS011;8302;51.154;4.456;2023-04-09T07:59:27;9.75;;;4.90;;
16385;SDS011;8302;51.154;4.456;2023-04-09T08:01:55;6.20;;;3.83;;
16385;SDS011;8302;51.154;4.456;2023-04-09T08:04:22;6.00;;;4.20;;
16385;SDS011;8302;51.154;4.456;2023-04-09T08:06:52;9.30;;;4.40;;
16385;SDS011;8302;51.154;4.456;2023-04-09T08:09:19;9.60;;;4.10;;
16385;SDS011;8302;51.154;4.456;2023-04-09T08:11:47;9.82;;;4.90;;
16385;SDS011;8302;51.154;4.456;2023-04-09T08:14:16;7.43;;;4.35;;
16385;SDS011;8302;51.154;4.456;2023-04-09T08:16:44;8.43;;;4.38;;
16385;SDS011;8302;51.154;4.456;2023-04-09T08:19:12;8.40;;;3.78;;
16385;SDS011;8302;51.154;4.456;2023-04-09T08:21:41;8.35;;;4.63;;
16385;SDS011;8302;51.154;4.456;2023-04-09T08:24:10;7.13;;;4.55;;
16385;SDS011;8302;51.154;4.456;2023-04-09T08:26:39;6.70;;;3.95;;
16385;SDS011;8302;51.154;4.456;2023-04-09T08:29:07;11.50;;;5.63;;
16385;SDS011;8302;51.154;4.456;2023-04-09T08:31:35;10.98;;;6.13;;
16385;SDS011;8302;51.154;4.456;2023-04-09T08:34:02;9.00;;;5.22;;
16385;SDS011;8302;51.154;4.456;2023-04-09T08:36:30;11.82;;;6.50;;
16385;SDS011;8302;51.154;4.456;2023-04-09T08:38:59;12.10;;;6.13;;
16385;SDS011;8302;51.154;4.456;2023-04-09T08:41:28;12.18;;;7.00;;
16385;SDS011;8302;51.154;4.456;2023-04-09T08:43:56;15.32;;;8.18;;
16385;SDS011;8302;51.154;4.456;2023-04-09T08:46:25;11.73;;;7.05;;
16385;SDS011;8302;51.154;4.456;2023-04-09T08:48:53;12.25;;;8.05;;
16385;SDS011;8302;51.154;4.456;2023-04-09T08:51:22;14.32;;;8.75;;
16385;SDS011;8302;51.154;4.456;2023-04-09T08:53:51;13.20;;;7.53;;
16385;SDS011;8302;51.154;4.456;2023-04-09T08:56:21;11.82;;;7.95;;
16385;SDS011;8302;51.154;4.456;2023-04-09T08:58:50;15.00;;;10.02;;
16385;SDS011;8302;51.154;4.456;2023-04-09T09:01:19;13.02;;;8.65;;
16385;SDS011;8302;51.154;4.456;2023-04-09T09:03:51;14.73;;;8.50;;
16385;SDS011;8302;51.154;4.456;2023-04-09T09:06:20;13.38;;;8.43;;
16385;SDS011;8302;51.154;4.456;2023-04-09T09:08:58;12.02;;;8.38;;
16385;SDS011;8302;51.154;4.456;2023-04-09T09:11:26;11.77;;;8.63;;
16385;SDS011;8302;51.154;4.456;2023-04-09T09:14:00;11.68;;;8.40;;
16385;SDS011;8302;51.154;4.456;2023-04-09T09:16:28;13.90;;;9.52;;
16385;SDS011;8302;51.154;4.456;2023-04-09T09:18:56;13.27;;;8.98;;
16385;SDS011;8302;51.154;4.456;2023-04-09T09:21:26;13.05;;;9.60;;
16385;SDS011;8302;51.154;4.456;2023-04-09T09:23:55;15.75;;;9.27;;
16385;SDS011;8302;51.154;4.456;2023-04-09T09:26:23;15.48;;;9.57;;
16385;SDS011;8302;51.154;4.456;2023-04-09T09:28:52;15.65;;;9.85;;
16385;SDS011;8302;51.154;4.456;2023-04-09T09:31:22;13.70;;;10.30;;
16385;SDS011;8302;51.154;4.456;2023-04-09T09:33:49;13.02;;;9.52;;
16385;SDS011;8302;51.154;4.456;2023-04-09T09:39:03;13.60;;;9.98;;
16385;SDS011;8302;51.154;4.456;2023-04-09T09:41:35;14.30;;;10.13;;
16385;SDS011;8302;51.154;4.456;2023-04-09T09:44:03;13.73;;;10.60;;
16385;SDS011;8302;51.154;4.456;2023-04-09T09:46:34;16.23;;;10.10;;
16385;SDS011;8302;51.154;4.456;2023-04-09T09:49:02;15.77;;;9.55;;
16385;SDS011;8302;51.154;4.456;2023-04-09T09:51:30;14.10;;;9.15;;
16385;SDS011;8302;51.154;4.456;2023-04-09T09:53:58;13.80;;;9.85;;
16385;SDS011;8302;51.154;4.456;2023-04-09T09:56:29;15.27;;;9.48;;
16385;SDS011;8302;51.154;4.456;2023-04-09T09:59:03;17.42;;;10.02;;
16385;SDS011;8302;51.154;4.456;2023-04-09T10:01:34;15.15;;;9.68;;
16385;SDS011;8302;51.154;4.456;2023-04-09T10:04:03;14.52;;;9.40;;
16385;SDS011;8302;51.154;4.456;2023-04-09T10:06:32;15.23;;;9.50;;
16385;SDS011;8302;51.154;4.456;2023-04-09T10:09:02;15.30;;;9.45;;
16385;SDS011;8302;51.154;4.456;2023-04-09T10:11:31;11.32;;;8.18;;
16385;SDS011;8302;51.154;4.456;2023-04-09T10:13:59;11.82;;;9.02;;
16385;SDS011;8302;51.154;4.456;2023-04-09T10:16:28;12.15;;;8.65;;
16385;SDS011;8302;51.154;4.456;2023-04-09T10:18:58;13.15;;;8.60;;
16385;SDS011;8302;51.154;4.456;2023-04-09T10:21:31;11.95;;;8.77;;
16385;SDS011;8302;51.154;4.456;2023-04-09T10:24:02;12.25;;;8.90;;
16385;SDS011;8302;51.154;4.456;2023-04-09T10:26:33;14.00;;;8.65;;
16385;SDS011;8302;51.154;4.456;2023-04-09T10:29:04;12.80;;;8.75;;
16385;SDS011;8302;51.154;4.456;2023-04-09T10:31:52;12.63;;;8.38;;
16385;SDS011;8302;51.154;4.456;2023-04-09T10:34:22;11.07;;;7.50;;
16385;SDS011;8302;51.154;4.456;2023-04-09T10:36:50;11.23;;;7.75;;
16385;SDS011;8302;51.154;4.456;2023-04-09T10:39:19;13.05;;;8.18;;
16385;SDS011;8302;51.154;4.456;2023-04-09T10:41:47;11.60;;;8.23;;
16385;SDS011;8302;51.154;4.456;2023-04-09T10:44:21;10.88;;;7.47;;
16385;SDS011;8302;51.154;4.456;2023-04-09T10:46:51;13.75;;;7.80;;
16385;SDS011;8302;51.154;4.456;2023-04-09T10:49:19;11.98;;;7.15;;
16385;SDS011;8302;51.154;4.456;2023-04-09T10:51:51;10.98;;;7.50;;
16385;SDS011;8302;51.154;4.456;2023-04-09T10:57:15;10.77;;;7.13;;
16385;SDS011;8302;51.154;4.456;2023-04-09T10:59:43;12.05;;;5.75;;
16385;SDS011;8302;51.154;4.456;2023-04-09T11:02:25;10.60;;;6.35;;
16385;SDS011;8302;51.154;4.456;2023-04-09T11:04:59;11.77;;;7.22;;
16385;SDS011;8302;51.154;4.456;2023-04-09T11:07:31;10.68;;;6.60;;
16385;SDS011;8302;51.154;4.456;2023-04-09T11:10:00;11.75;;;6.95;;
16385;SDS011;8302;51.154;4.456;2023-04-09T11:12:27;9.63;;;6.97;;
16385;SDS011;8302;51.154;4.456;2023-04-09T11:14:55;10.93;;;6.78;;
16385;SDS011;8302;51.154;4.456;2023-04-09T11:17:22;12.32;;;8.00;;
16385;SDS011;8302;51.154;4.456;2023-04-09T11:19:50;10.68;;;7.03;;
16385;SDS011;8302;51.154;4.456;2023-04-09T11:22:18;10.98;;;8.05;;
16385;SDS011;8302;51.154;4.456;2023-04-09T11:24:47;13.48;;;7.63;;
16385;SDS011;8302;51.154;4.456;2023-04-09T11:27:16;9.38;;;7.32;;
16385;SDS011;8302;51.154;4.456;2023-04-09T11:29:44;12.55;;;7.82;;
16385;SDS011;8302;51.154;4.456;2023-04-09T11:32:12;11.70;;;7.70;;
16385;SDS011;8302;51.154;4.456;2023-04-09T11:34:40;11.23;;;8.60;;
16385;SDS011;8302;51.154;4.456;2023-04-09T11:37:12;11.25;;;8.05;;
16385;SDS011;8302;51.154;4.456;2023-04-09T11:39:42;10.07;;;7.65;;
16385;SDS011;8302;51.154;4.456;2023-04-09T11:42:13;12.15;;;8.25;;
16385;SDS011;8302;51.154;4.456;2023-04-09T11:44:43;13.40;;;8.00;;
16385;SDS011;8302;51.154;4.456;2023-04-09T11:47:11;11.20;;;7.60;;
16385;SDS011;8302;51.154;4.456;2023-04-09T11:49:38;10.77;;;7.25;;
16385;SDS011;8302;51.154;4.456;2023-04-09T11:52:06;12.30;;;7.55;;
16385;SDS011;8302;51.154;4.456;2023-04-09T11:54:34;10.77;;;7.60;;
16385;SDS011;8302;51.154;4.456;2023-04-09T11:57:02;12.43;;;8.35;;
16385;SDS011;8302;51.154;4.456;2023-04-09T11:59:31;12.00;;;7.47;;
16385;SDS011;8302;51.154;4.456;2023-04-09T12:01:59;11.55;;;6.28;;
16385;SDS011;8302;51.154;4.456;2023-04-09T12:04:27;10.10;;;6.93;;
16385;SDS011;8302;51.154;4.456;2023-04-09T12:06:55;8.27;;;6.65;;
16385;SDS011;8302;51.154;4.456;2023-04-09T12:09:24;9.40;;;5.65;;
16385;SDS011;8302;51.154;4.456;2023-04-09T12:11:51;9.18;;;5.88;;
16385;SDS011;8302;51.154;4.456;2023-04-09T12:14:20;10.13;;;5.38;;
16385;SDS011;8302;51.154;4.456;2023-04-09T12:16:50;7.53;;;5.00;;
16385;SDS011;8302;51.154;4.456;2023-04-09T12:19:19;7.95;;;4.82;;
16385;SDS011;8302;51.154;4.456;2023-04-09T12:21:48;8.80;;;5.07;;
16385;SDS011;8302;51.154;4.456;2023-04-09T12:24:17;6.07;;;4.05;;
16385;SDS011;8302;51.154;4.456;2023-04-09T12:26:45;8.05;;;4.05;;
16385;SDS011;8302;51.154;4.456;2023-04-09T12:29:13;6.60;;;3.95;;
16385;SDS011;8302;51.154;4.456;2023-04-09T12:31:41;8.18;;;3.78;;
16385;SDS011;8302;51.154;4.456;2023-04-09T12:34:10;6.13;;;3.25;;
16385;SDS011;8302;51.154;4.456;2023-04-09T12:36:38;5.95;;;3.72;;
16385;SDS011;8302;51.154;4.456;2023-04-09T12:39:07;6.13;;;3.67;;
16385;SDS011;8302;51.154;4.456;2023-04-09T12:41:35;9.23;;;3.85;;
16385;SDS011;8302;51.154;4.456;2023-04-09T12:44:02;5.43;;;3.08;;
16385;SDS011;8302;51.154;4.456;2023-04-09T12:46:30;3.97;;;2.65;;
16385;SDS011;8302;51.154;4.456;2023-04-09T12:48:58;4.65;;;2.90;;
16385;SDS011;8302;51.154;4.456;2023-04-09T12:51:27;5.18;;;2.58;;
16385;SDS011;8302;51.154;4.456;2023-04-09T12:53:55;4.30;;;2.78;;
16385;SDS011;8302;51.154;4.456;2023-04-09T12:56:23;3.35;;;2.17;;
16385;SDS011;8302;51.154;4.456;2023-04-09T12:58:51;5.72;;;3.40;;
16385;SDS011;8302;51.154;4.456;2023-04-09T13:01:19;5.50;;;3.78;;
16385;SDS011;8302;51.154;4.456;2023-04-09T13:03:47;5.93;;;3.63;;
16385;SDS011;8302;51.154;4.456;2023-04-09T13:06:15;7.15;;;4.90;;
16385;SDS011;8302;51.154;4.456;2023-04-09T13:08:44;6.97;;;5.15;;
16385;SDS011;8302;51.154;4.456;2023-04-09T13:11:11;7.07;;;5.25;;
16385;SDS011;8302;51.154;4.456;2023-04-09T13:13:39;7.28;;;5.45;;
16385;SDS011;8302;51.154;4.456;2023-04-09T13:16:08;9.65;;;4.88;;
16385;SDS011;8302;51.154;4.456;2023-04-09T13:18:35;8.20;;;4.55;;
16385;SDS011;8302;51.154;4.456;2023-04-09T13:21:03;7.10;;;4.97;;
16385;SDS011;8302;51.154;4.456;2023-04-09T13:23:31;8.20;;;4.65;;
16385;SDS011;8302;51.154;4.456;2023-04-09T13:26:00;6.07;;;3.80;;
16385;SDS011;8302;51.154;4.456;2023-04-09T13:28:27;6.63;;;3.33;;
16385;SDS011;8302;51.154;4.456;2023-04-09T13:30:55;5.45;;;3.35;;
16385;SDS011;8302;51.154;4.456;2023-04-09T13:33:22;6.07;;;3.25;;
16385;SDS011;8302;51.154;4.456;2023-04-09T13:35:50;5.40;;;3.08;;
16385;SDS011;8302;51.154;4.456;2023-04-09T13:38:18;5.68;;;2.92;;
16385;SDS011;8302;51.154;4.456;2023-04-09T13:40:45;7.60;;;2.97;;
16385;SDS011;8302;51.154;4.456;2023-04-09T13:43:14;4.38;;;3.10;;
16385;SDS011;8302;51.154;4.456;2023-04-09T13:45:42;3.97;;;2.75;;
16385;SDS011;8302;51.154;4.456;2023-04-09T13:48:09;4.43;;;3.22;;
16385;SDS011;8302;51.154;4.456;2023-04-09T13:50:40;3.97;;;3.00;;
16385;SDS011;8302;51.154;4.456;2023-04-09T13:53:08;6.47;;;2.08;;
16385;SDS011;8302;51.154;4.456;2023-04-09T13:55:36;3.15;;;1.95;;
16385;SDS011;8302;51.154;4.456;2023-04-09T13:58:03;5.47;;;3.08;;
16385;SDS011;8302;51.154;4.456;2023-04-09T14:00:33;4.32;;;2.58;;
16385;SDS011;8302;51.154;4.456;2023-04-09T14:03:01;3.25;;;1.73;;
16385;SDS011;8302;51.154;4.456;2023-04-09T14:05:29;3.88;;;1.77;;
16385;SDS011;8302;51.154;4.456;2023-04-09T14:07:57;1.42;;;1.33;;
16385;SDS011;8302;51.154;4.456;2023-04-09T14:10:25;3.20;;;2.15;;
16385;SDS011;8302;51.154;4.456;2023-04-09T14:12:52;1.85;;;1.63;;
16385;SDS011;8302;51.154;4.456;2023-04-09T14:15:20;2.78;;;1.75;;
16385;SDS011;8302;51.154;4.456;2023-04-09T14:17:49;3.55;;;2.25;;
16385;SDS011;8302;51.154;4.456;2023-04-09T14:20:17;6.63;;;2.20;;
16385;SDS011;8302;51.154;4.456;2023-04-09T14:22:46;3.50;;;1.98;;
16385;SDS011;8302;51.154;4.456;2023-04-09T14:25:15;2.55;;;1.65;;
16385;SDS011;8302;51.154;4.456;2023-04-09T14:27:43;4.40;;;2.03;;
16385;SDS011;8302;51.154;4.456;2023-04-09T14:30:11;2.35;;;1.90;;
16385;SDS011;8302;51.154;4.456;2023-04-09T14:32:39;1.85;;;1.52;;
16385;SDS011;8302;51.154;4.456;2023-04-09T14:35:09;2.50;;;1.52;;
16385;SDS011;8302;51.154;4.456;2023-04-09T14:37:37;2.78;;;1.83;;
16385;SDS011;8302;51.154;4.456;2023-04-09T14:40:06;1.98;;;1.55;;
16385;SDS011;8302;51.154;4.456;2023-04-09T14:42:34;2.83;;;1.75;;
16385;SDS011;8302;51.154;4.456;2023-04-09T14:45:02;4.68;;;1.73;;
16385;SDS011;8302;51.154;4.456;2023-04-09T14:47:29;3.38;;;1.52;;
16385;SDS011;8302;51.154;4.456;2023-04-09T14:49:57;6.35;;;2.15;;
16385;SDS011;8302;51.154;4.456;2023-04-09T14:52:26;3.28;;;1.35;;
16385;SDS011;8302;51.154;4.456;2023-04-09T14:54:55;3.30;;;2.03;;
16385;SDS011;8302;51.154;4.456;2023-04-09T14:57:23;2.30;;;1.88;;
16385;SDS011;8302;51.154;4.456;2023-04-09T14:59:51;3.25;;;2.22;;
16385;SDS011;8302;51.154;4.456;2023-04-09T15:02:18;2.97;;;1.42;;
16385;SDS011;8302;51.154;4.456;2023-04-09T15:04:46;2.08;;;1.95;;
16385;SDS011;8302;51.154;4.456;2023-04-09T15:07:14;1.10;;;0.60;;
16385;SDS011;8302;51.154;4.456;2023-04-09T15:09:43;4.00;;;2.00;;
16385;SDS011;8302;51.154;4.456;2023-04-09T15:12:10;1.83;;;1.20;;
16385;SDS011;8302;51.154;4.456;2023-04-09T15:14:38;6.63;;;1.88;;